Flight Track Log - Related Links

Times and Time Zones

All times are in EDT time to prevent confusion due to time zone crossing. See the TYR275 flight status page for this flight to view local times or setup timezone preferences in your user account.

Time Position Orientation Groundspeed Altitude Reporting Facility
EDT Latitude Longitude Course Direction KTS MPH feet Rate Location/Type
Wed 12:12:00 PM 48.3852 16.3857 336° Northwest  Level Estimated
Wed 12:13:00 PM 48.4767 16.3239 336° Northwest  Level Estimated
Wed 12:14:00 PM 48.5682 16.2619 336° Northwest  Level Estimated
Wed 12:15:00 PM 48.6597 16.1997 336° Northwest  Level Estimated
Wed 12:16:00 PM 48.7512 16.1372 336° Northwest  Level Estimated
Wed 12:17:00 PM 48.8426 16.0745 336° Northwest  Level Estimated
Wed 12:18:00 PM 48.9340 16.0116 336° Northwest  Level Estimated
Wed 12:19:00 PM 49.0254 15.9485 336° Northwest  Level Estimated
Wed 12:20:00 PM 49.1167 15.8851 336° Northwest  Level Estimated
Wed 12:21:00 PM 49.2080 15.8215 336° Northwest  Level Estimated
Wed 12:22:00 PM 49.2992 15.7576 335° Northwest  Level Estimated
Wed 12:23:00 PM 49.3904 15.6935 335° Northwest  Level Estimated
Wed 12:24:00 PM 49.4816 15.6292 335° Northwest  Level Estimated
Wed 12:25:00 PM 49.5728 15.5647 335° Northwest  Level Estimated
Wed 12:26:00 PM 49.6639 15.4999 335° Northwest  Level Estimated
Wed 12:27:00 PM 49.7550 15.4348 335° Northwest  Level Estimated
Wed 12:28:00 PM 49.8460 15.3695 335° Northwest  Level Estimated
Wed 12:29:00 PM 49.9370 15.3040 335° Northwest  Level Estimated
Wed 12:30:00 PM 50.0280 15.2382 335° Northwest  Level Estimated
Wed 12:31:00 PM 50.1189 15.1721 335° Northwest  Level Estimated
Wed 12:32:00 PM 50.2098 15.1059 335° Northwest  Level Estimated
Wed 12:33:00 PM 50.3006 15.0393 335° Northwest  Level Estimated
Wed 12:34:00 PM 50.3914 14.9725 335° Northwest  Level Estimated
Wed 12:35:00 PM 50.4822 14.9055 335° Northwest  Level Estimated
Wed 12:36:00 PM 50.5729 14.8382 335° Northwest  Level Estimated
Wed 12:37:00 PM 50.6637 14.7706 335° Northwest  Level Estimated
Wed 12:38:00 PM 50.7543 14.7028 335° Northwest  Level Estimated
Wed 12:39:00 PM 50.8449 14.6347 335° Northwest  Level Estimated
Wed 12:40:00 PM 50.9355 14.5663 335° Northwest  Level Estimated
Wed 12:41:00 PM 51.0261 14.4977 335° Northwest  Level Estimated
Wed 12:42:00 PM 51.1166 14.4288 334° Northwest  Level Estimated
Wed 12:43:00 PM 51.2070 14.3596 334° Northwest  Level Estimated
Wed 12:44:00 PM 51.2974 14.2902 334° Northwest  Level Estimated
Wed 12:45:00 PM 51.3878 14.2205 334° Northwest  Level Estimated
Wed 12:46:00 PM 51.4781 14.1505 334° Northwest  Level Estimated
Wed 12:47:00 PM 51.5684 14.0802 334° Northwest  Level Estimated
Wed 12:48:00 PM 51.6587 14.0097 334° Northwest  Level Estimated
Wed 12:49:00 PM 51.7489 13.9389 334° Northwest  Level Estimated
Wed 12:50:00 PM 51.8390 13.8678 334° Northwest  Level Estimated
Wed 12:51:00 PM 51.9292 13.7964 334° Northwest  Level Estimated
Wed 12:52:00 PM 52.0192 13.7247 334° Northwest  Level Estimated
Wed 12:53:00 PM 52.1093 13.6527 334° Northwest  Level Estimated
Wed 12:54:00 PM 52.1993 13.5805 334° Northwest  Level Estimated
Wed 12:55:00 PM 52.2892 13.5079 334° Northwest  Level Estimated
Wed 12:56:00 PM 52.3791 13.4351 334° Northwest  Level Estimated
Wed 12:57:00 PM 52.4690 13.3619 334° Northwest  Level Estimated
Wed 12:58:00 PM 52.5588 13.2885 334° Northwest  Level Estimated
Wed 12:59:00 PM 52.5597 13.2877 334° Northwest  Level Estimated
Wed 01:00:00 PM 52.5597 13.2877 171° South  Level Estimated
Wed 01:01:00 PM 52.5597 13.2877 171° South  Level Estimated
Wed 01:02:00 PM 52.5597 13.2877 171° South  Level Estimated
Wed 01:03:00 PM 52.5597 13.2877 171° South  Level Estimated
Wed 01:04:00 PM 52.5597 13.2877 171° South  Level Estimated
Wed 01:05:00 PM 52.5597 13.2877 171° South  Level Estimated
Wed 01:06:00 PM 52.5597 13.2877 171° South  Level Estimated
Wed 01:07:00 PM 52.5597 13.2877 171° South  Level Estimated
Wed 01:08:00 PM 52.5597 13.2877 171° South  Level Estimated
Wed 01:09:00 PM 52.5597 13.2877 171° South  Level Estimated
Wed 01:10:00 PM 52.5597 13.2877 171° South  Level Estimated
Wed 01:11:00 PM 52.5597 13.2877 171° South  Level Estimated

Login

Don't have an account? Register now (free) for customized features, flight alerts, and more!